• Join FlightAware (Why Join?)
  • Login
  • US Flag 
09:29AM EDT


 

Airport Tracker/Info


-or-


 

Live Flight TrackerFlight Track Log ✈ VIR19 ✈ 23-Jul-2013 ✈ EGLL / LHR - KSFO

Flight Track Log - Related Links

Times and Time Zones

All times are in EDT time to prevent confusion due to time zone crossing. See the VIR19 flight status page for this flight to view local times or setup timezone preferences in your user account.

Time Position Orientation Groundspeed Altitude Reporting Facility
EDT Latitude Longitude Course Direction KTS MPH feet Rate Location/Type
08:15AM 51.4760 -0.4430 North  Level FlightAware
08:16AM 51.4760 -0.4410 90° East 60 Level FlightAware
08:19AM 51.6674 -0.7427 317° Northwest  Level FlightAware Approximate
08:19AM 51.4760 -0.4390 317° Northwest  Level FlightAware
08:20AM 51.4760 -0.4380 90° East 120 Level FlightAware
08:21AM 51.4760 -0.4370 90° East 120 Level FlightAware
08:21AM 51.4760 -0.4350 90° East 100 120 Climbing FlightAware
08:24AM 51.6834 -0.7666 317° Northwest  Level FlightAware Approximate
08:24AM 51.4770 -0.4350 317° Northwest  Level FlightAware
08:25AM 51.4780 -0.4340 32° Northeast 480 Level FlightAware
08:26AM 51.4780 -0.4490 270° West 660 Level FlightAware
08:26AM 51.4777 -0.5085 270° West 186 214 1,000 1,020 Climbing FlightAware UK
08:26AM 51.4780 -0.5020 270° West 183 211 800 1,920 Descending FlightAware
08:27AM 51.4785 -0.5509 271° West 195 224 2,000 2,580 Climbing FlightAware ADS-B
08:27AM 51.4798 -0.5579 287° West 198 228 2,100 1,500 Climbing FlightAware ADS-B
08:27AM 51.4809 -0.5620 294° West 202 232 2,200 1,200 Climbing FlightAware ADS-B
08:27AM 51.4839 -0.5716 297° West 208 239 2,300 1,320 Climbing FlightAware ADS-B
08:27AM 51.4912 -0.5928 299° West 222 255 2,700 1,560 Climbing FlightAware ADS-B
08:28AM 51.4992 -0.6154 300° West 236 272 3,100 1,800 Climbing FlightAware ADS-B
08:28AM 51.5015 -0.6231 296° West 236 272 3,300 3,000 Climbing FlightAware ADS-B
08:28AM 51.5041 -0.6309 298° West 234 269 3,600 2,700 Climbing FlightAware ADS-B
08:28AM 51.5119 -0.6540 298° West 237 273 4,200 2,280 Climbing FlightAware ADS-B
08:28AM 51.5149 -0.6633 297° West 239 275 4,400 2,640 Climbing FlightAware ADS-B
08:28AM 51.5170 -0.6694 299° West 240 276 4,600 2,520 Climbing FlightAware ADS-B
08:28AM 51.5191 -0.6737 308° West 241 277 4,700 1,680 Climbing FlightAware ADS-B
08:28AM 51.5219 -0.6776 319° Northwest 244 281 4,800 1,680 Climbing FlightAware ADS-B
08:28AM 51.5256 -0.6825 321° Northwest 246 283 4,900 2,220 Climbing FlightAware ADS-B
08:28AM 51.5290 -0.6863 325° Northwest 248 285 5,100 2,520 Climbing FlightAware ADS-B
08:28AM 51.5322 -0.6887 335° Northwest 249 287 5,200 1,680 Climbing FlightAware ADS-B
08:28AM 51.5366 -0.6910 342° North 251 289 5,300 2,220 Climbing FlightAware ADS-B
08:29AM 51.5406 -0.6923 349° North 251 289 5,500 1,980 Climbing FlightAware ADS-B
08:29AM 51.5467 -0.6927 358° North 255 293 5,600 1,620 Climbing FlightAware ADS-B
08:29AM 51.5536 -0.6921 North 261 300 5,800 1,380 Climbing FlightAware ADS-B
08:29AM 51.5681 -0.6902 North 275 316 6,000 660 Climbing FlightAware ADS-B
08:29AM 51.5771 -0.6893 North 283 326 6,000  Level FlightAware ADS-B
08:29AM 51.5919 -0.6889 North 296 341 6,000  Level FlightAware ADS-B
08:29AM 51.6138 -0.6896 359° North 302 348 6,000  Level FlightAware ADS-B
08:30AM 51.6351 -0.6911 358° North 301 346 6,000  Level FlightAware ADS-B
08:30AM 51.6574 -0.6928 357° North 302 348 6,000 300 Level FlightAware ADS-B
08:30AM 51.6828 -0.6956 356° North 301 346 6,200 660 Climbing FlightAware ADS-B
08:31AM 51.7044 -0.6979 356° North 305 351 6,400 780 Climbing FlightAware ADS-B
08:31AM 51.7256 -0.7004 356° North 306 352 6,600 900 Climbing FlightAware ADS-B
08:31AM 51.7497 -0.7032 356° North 309 356 6,900 720 Climbing FlightAware ADS-B
08:31AM 51.7715 -0.7056 356° North 312 359 7,000 360 Climbing FlightAware ADS-B
08:32AM 51.7950 -0.7082 356° North 314 361 7,100 1,560 Climbing FlightAware ADS-B
08:32AM 51.8201 -0.7112 356° North 317 365 7,900 3,000 Climbing FlightAware ADS-B
08:32AM 51.8448 -0.7137 356° North 320 368 8,800 3,000 Climbing FlightAware ADS-B
08:32AM 51.8706 -0.7166 356° North 325 374 9,600 2,340 Climbing FlightAware ADS-B
08:33AM 51.9169 -0.7218 356° North 346 398 10,700 2,040 Climbing FlightAware ADS-B
08:33AM 51.9407 -0.7254 355° North 363 418 11,100 1,260 Climbing FlightAware ADS-B
08:34AM 51.9955 -0.7410 350° North 402 463 11,700 1,620 Climbing FlightAware ADS-B
08:34AM 52.0611 -0.7590 350° North 424 488 12,900 2,100 Climbing FlightAware ADS-B
08:35AM 52.1217 -0.7768 350° North 436 502 14,000 1,980 Climbing FlightAware ADS-B
08:35AM 52.1830 -0.7947 350° North 444 511 15,000 1,980 Climbing FlightAware ADS-B
08:36AM 52.2458 -0.8143 349° North 453 521 16,100 1,980 Climbing FlightAware ADS-B
08:36AM 52.3126 -0.8368 348° North 464 534 17,100 1,920 Climbing FlightAware ADS-B
08:37AM 52.3807 -0.8601 348° North 473 544 18,200 1,980 Climbing FlightAware ADS-B
08:37AM 52.4520 -0.8905 345° North 477 549 19,300 1,860 Climbing FlightAware ADS-B
08:38AM 52.5082 -0.9475 345° North 454 522 20,200 1,920 Climbing FlightAware UK
08:38AM 52.5532 -0.9980 345° North 483 556 21,100 1,920 Climbing FlightAware ADS-B
08:39AM 52.6087 -1.0616 325° Northwest 487 560 22,000 1,860 Climbing FlightAware ADS-B
08:39AM 52.6655 -1.1282 325° Northwest 492 566 23,000 1,800 Climbing FlightAware ADS-B
08:40AM 52.7304 -1.2032 325° Northwest 501 577 24,000 1,740 Climbing FlightAware ADS-B
08:41AM 52.8021 -1.2874 325° Northwest 506 582 25,100 1,680 Climbing FlightAware ADS-B
08:41AM 52.8792 -1.3771 325° Northwest 514 592 26,200 1,500 Climbing FlightAware ADS-B
08:42AM 52.9381 -1.4455 325° Northwest 520 598 26,900 1,560 Climbing FlightAware ADS-B
08:43AM 53.0390 -1.5660 324° Northwest 522 601 28,400 1,740 Climbing FlightAware
08:43AM 53.0625 -1.5939 324° Northwest 520 598 28,800 1,740 Climbing FlightAware ADS-B
08:43AM 53.1170 -1.6600 324° Northwest 522 601 29,600 1,680 Climbing FlightAware
08:44AM 53.1385 -1.6886 321° Northwest 520 598 29,900 1,380 Climbing FlightAware ADS-B
08:44AM 53.1902 -1.7879 311° West 519 597 30,600 1,260 Climbing FlightAware ADS-B
08:45AM 53.2372 -1.8931 307° West 518 596 31,300 1,140 Climbing FlightAware ADS-B
08:45AM 53.2889 -2.0287 307° West 490 564 32,000 960 Climbing FlightAware UK
08:45AM 53.2900 -2.0300 307° West 518 596 32,000  Level FlightAware
08:46AM 53.3429 -2.1711 307° West 490 564 32,000  Level FlightAware UK
08:46AM 53.3480 -2.1820 307° West 520 598 32,000  Level FlightAware
08:47AM 53.3898 -2.2929 307° West 492 566 32,000  Level FlightAware UK
08:47AM 53.3990 -2.3150 307° West 521 600 32,000  Level FlightAware
08:47AM 53.4443 -2.4346 307° West 490 564 32,000  Level FlightAware UK
08:47AM 53.4520 -2.4540 307° West 521 600 32,000  Level FlightAware
08:48AM 53.5067 -2.5989 307° West 490 564 32,000  Level FlightAware UK
08:48AM 53.5110 -2.6110 307° West 522 601 32,000  Level FlightAware
08:49AM 53.5560 -2.7300 307° West 522 601 32,000  Level FlightAware
08:49AM 53.5685 -2.7622 307° West 490 564 32,000  Level FlightAware UK
08:49AM 53.6073 -2.8647 307° West 488 562 32,000  Level FlightAware UK
08:49AM 53.6080 -2.8640 307° West 521 600 32,000  Level FlightAware
08:50AM 53.6590 -3.0020 302° West 526 605 32,000  Level FlightAware
08:51AM 53.7060 -3.1270 302° West 527 606 32,000  Level FlightAware
08:51AM 53.7152 -3.1550 302° West 490 564 32,000  Level FlightAware UK
08:51AM 53.7550 -3.2620 302° West 526 605 32,000  Level FlightAware
08:52AM 53.8000 -3.3847 302° West 488 562 32,000  Level FlightAware UK
08:52AM 53.8260 -3.4360 302° West 533 613 32,000  Level FlightAware
08:53AM 53.8860 -3.5460 313° West 533 613 32,000  Level FlightAware
08:53AM 53.9520 -3.6690 312° West 532 612 32,000  Level FlightAware
08:54AM 54.0200 -3.7910 314° West 536 617 32,000  Level FlightAware
08:55AM 54.1004 -3.9017 314° West 488 562 32,000  Level FlightAware UK
08:55AM 54.1020 -3.9020 314° West 539 620 32,000  Level FlightAware
08:55AM 54.1820 -4.0150 320° Northwest 539 620 32,000  Level FlightAware
08:56AM 54.2670 -4.1350 321° Northwest 539 620 32,000  Level FlightAware
08:57AM 54.3480 -4.2490 321° Northwest 541 623 32,000  Level FlightAware
08:58AM 54.4300 -4.3620 321° Northwest 542 624 32,000  Level FlightAware
08:58AM 54.5090 -4.4740 321° Northwest 543 625 32,000  Level FlightAware
08:59AM 54.5758 -4.5679 321° Northwest 488 562 32,000  Level FlightAware UK
08:59AM 54.6461 -4.6671 321° Northwest 490 564 32,000  Level FlightAware UK
08:59AM 54.6430 -4.6630 321° Northwest 540 621 32,000  Level FlightAware
09:00AM 54.7047 -4.7502 321° Northwest 490 564 32,000  Level FlightAware UK
09:00AM 54.7270 -4.7790 321° Northwest 547 629 32,000  Level FlightAware
09:01AM 54.8040 -4.8910 320° Northwest 541 623 32,000  Level FlightAware
09:01AM 54.8683 -4.9834 320° Northwest 488 562 32,000  Level FlightAware UK
09:02AM 54.8930 -5.0160 320° Northwest 542 624 32,000  Level FlightAware
09:02AM 54.9700 -5.1280 320° Northwest 542 624 32,000  Level FlightAware
09:03AM 55.0490 -5.2440 320° Northwest 543 625 32,000  Level FlightAware
09:03AM 55.0556 -5.2533 320° Northwest 488 562 32,000  Level FlightAware UK
09:04AM 55.1259 -5.3550 320° Northwest 490 564 32,000  Level FlightAware UK
09:04AM 55.1280 -5.3570 320° Northwest 544 626 32,000  Level FlightAware
09:04AM 55.2080 -5.4740 320° Northwest 550 633 32,000  Level FlightAware
09:05AM 55.2840 -5.5850 320° Northwest 548 631 32,000  Level FlightAware
09:05AM 55.3012 -5.6121 320° Northwest 492 566 32,000  Level FlightAware UK
09:06AM 55.3594 -5.6978 320° Northwest 488 562 32,000  Level FlightAware UK
09:06AM 55.3730 -5.7160 320° Northwest 546 628 32,000  Level FlightAware
09:06AM 55.4590 -5.8450 320° Northwest 544 626 32,000  Level FlightAware
09:07AM 55.5323 -5.9548 320° Northwest 486 559 32,000  Level FlightAware UK
09:07AM 55.5440 -5.9710 320° Northwest 544 626 32,000  Level FlightAware
09:08AM 55.6220 -6.0890 320° Northwest 538 619 32,000  Level FlightAware
09:09AM 55.6970 -6.2010 320° Northwest 537 618 32,000  Level FlightAware
09:09AM 55.7650 -6.3050 320° Northwest 537 618 32,000  Level FlightAware
09:09AM 55.7728 -6.3176 320° Northwest 486 559 32,000  Level FlightAware UK
09:10AM 55.8299 -6.4047 320° Northwest 484 557 32,000  Level FlightAware UK
09:10AM 55.8500 -6.4330 320° Northwest 537 618 32,000  Level FlightAware
09:11AM 55.9270 -6.5530 319° Northwest 539 620 32,000  Level FlightAware
09:11AM 56.0140 -6.6860 320° Northwest 540 621 32,000  Level FlightAware
09:12AM 56.0890 -6.8040 320° Northwest 537 618 32,000  Level FlightAware
09:12AM 56.0928 -6.8101 320° Northwest 492 566 32,000  Level FlightAware UK
09:12AM 56.1498 -6.8984 320° Northwest 492 566 32,000  Level FlightAware UK
09:13AM 56.1460 -6.8920 320° Northwest 536 617 32,000  Level FlightAware
09:13AM 56.2400 -7.0390 319° Northwest 539 620 32,000  Level FlightAware
09:14AM 56.3184 -7.1641 319° Northwest 486 559 32,000  Level FlightAware UK
09:14AM 56.3260 -7.1750 319° Northwest 541 623 32,000  Level FlightAware
09:15AM 56.4000 -7.2920 319° Northwest 541 623 32,000  Level FlightAware
09:15AM 56.4874 -7.4329 319° Northwest 486 559 32,000  Level FlightAware UK
09:15AM 56.4860 -7.4290 319° Northwest 542 624 32,000  Level FlightAware
09:16AM 56.5436 -7.5229 319° Northwest 486 559 32,000  Level FlightAware UK
09:16AM 56.5440 -7.5230 319° Northwest 542 624 32,000  Level FlightAware
09:17AM 56.6105 -7.6310 319° Northwest 490 564 32,000  Level FlightAware UK
09:17AM 56.6410 -7.6790 319° Northwest 542 624 32,000  Level FlightAware
09:17AM 56.7060 -7.7830 319° Northwest 541 623 32,000  Level FlightAware
09:18AM 56.7897 -7.9223 319° Northwest 486 559 32,000  Level FlightAware UK
09:18AM 56.8000 -7.9370 319° Northwest 541 623 32,000  Level FlightAware
09:19AM 56.8730 -8.0560 318° Northwest 542 624 32,000  Level FlightAware
09:20AM 56.9569 -8.1975 318° Northwest 486 559 32,000  Level FlightAware UK
09:20AM 56.9580 -8.1980 318° Northwest 542 624 32,000  Level FlightAware
09:20AM 57.0300 -8.3180 318° Northwest 542 624 32,000  Level FlightAware
09:21AM 57.0990 -8.4320 318° Northwest 541 623 32,000  Level FlightAware
09:22AM 57.1789 -8.5689 318° Northwest 490 564 32,000  Level FlightAware UK
09:22AM 57.1890 -8.5850 318° Northwest 542 624 32,000  Level FlightAware
09:22AM 57.2620 -8.7070 318° Northwest 547 629 32,000  Level FlightAware
09:23AM 57.3459 -8.8525 318° Northwest 496 571 32,000  Level FlightAware UK
09:23AM 57.3470 -8.8530 318° Northwest 547 629 32,000  Level FlightAware
09:24AM 57.4240 -8.9830 318° Northwest 548 631 32,000  Level FlightAware
09:25AM 57.4930 -9.1050 316° Northwest 549 632 32,000  Level FlightAware
09:25AM 57.5650 -9.2270 318° Northwest 548 631 32,000  Level FlightAware
09:26AM 57.6390 -9.3590 316° Northwest 546 628 32,000  Level FlightAware
09:26AM 57.7120 -9.4880 317° Northwest 538 619 32,000  Level FlightAware
09:27AM 57.7860 -9.6170 317° Northwest 538 619 32,000  Level FlightAware
09:28AM 57.8610 -9.7490 317° Northwest 538 619 32,000  Level FlightAware
09:29AM 57.9410 -9.8920 317° Northwest 537 618 32,000  Level FlightAware
09:29AM 57.9980 -10.0120 312° West 535 616 32,000  Level FlightAware
09:30AM 58.0520 -10.2000 299° West 531 611 32,000  Level FlightAware
09:31AM 58.1010 -10.3970 295° West 531 611 32,000  Level FlightAware
09:31AM 58.1370 -10.5440 295° West 527 606 32,000  Level FlightAware
09:32AM 58.1760 -10.7050 295° West 527 606 32,000  Level FlightAware
09:33AM 58.2170 -10.8770 294° West 525 604 32,000  Level FlightAware
09:34AM 58.2700 -11.1010 294° West 526 605 32,000  Level FlightAware
09:34AM 58.3060 -11.2480 295° West 525 604 32,000  Level FlightAware
09:35AM 58.3530 -11.4430 295° West 525 604 32,000  Level FlightAware
09:35AM 58.3940 -11.6170 294° West 525 604 32,000  Level FlightAware
09:36AM 58.4450 -11.8420 293° West 528 608 32,000  Level FlightAware
09:37AM 58.4920 -12.0380 295° West 32,000  Level FlightAware
09:38AM 58.5310 -12.2110 293° West 529 609 32,000  Level FlightAware
09:39AM 58.5600 -12.3430 293° West 529 609 32,000  Level FlightAware
09:39AM 58.5980 -12.5160 293° West 529 609 32,000  Level FlightAware
09:40AM 58.6460 -12.7330 293° West 529 609 32,000  Level FlightAware
09:41AM 58.6850 -12.9090 293° West 529 609 32,000  Level FlightAware
09:42AM 58.7140 -13.0420 293° West 529 609 32,000  Level FlightAware
09:42AM 58.7430 -13.1750 293° West 529 609 32,000  Level FlightAware
09:43AM 58.7830 -13.3560 293° West 529 609 32,000  Level FlightAware
09:44AM 58.8120 -13.4890 293° West 529 609 32,000  Level FlightAware
09:45AM 58.8620 -13.7150 293° West 529 609 32,000  Level FlightAware
09:45AM 58.8930 -13.8560 293° West 529 609 32,000  Level FlightAware
09:46AM 58.9230 -13.9930 293° West 529 609 32,000  Level FlightAware
09:47AM 58.9620 -14.1710 293° West 529 609 32,000  Level FlightAware
09:47AM 58.9910 -14.3050 293° West 529 609 32,000  Level FlightAware
09:50AM 59.0981 -14.8349 292° West  Level FlightAware Approximate
09:51AM 59.1472 -15.0825 291° West  Level FlightAware Approximate
09:52AM 59.1958 -15.3308 291° West  Level FlightAware Approximate
09:53AM 59.2439 -15.5798 291° West  Level FlightAware Approximate
09:54AM 59.2916 -15.8295 291° West  Level FlightAware Approximate
09:55AM 59.3388 -16.0800 290° West  Level FlightAware Approximate
09:56AM 59.3855 -16.3311 290° West  Level FlightAware Approximate
09:57AM 59.4317 -16.5828 290° West  Level FlightAware Approximate
09:58AM 59.4774 -16.8353 290° West  Level FlightAware Approximate
09:59AM 59.5227 -17.0885 290° West  Level FlightAware Approximate
10:00AM 59.5674 -17.3423 289° West  Level FlightAware Approximate
10:01AM 59.6116 -17.5968 289° West  Level FlightAware Approximate
10:02AM 59.6554 -17.8520 289° West  Level FlightAware Approximate
10:03AM 59.6987 -18.1078 289° West  Level FlightAware Approximate
10:04AM 59.7414 -18.3643 288° West  Level FlightAware Approximate
10:05AM 59.7837 -18.6215 288° West  Level FlightAware Approximate
10:06AM 59.8255 -18.8792 288° West  Level FlightAware Approximate
10:07AM 59.8667 -19.1377 288° West  Level FlightAware Approximate
10:07AM 60.0000 -20.0000 286° West 516 594 32,000  Level ETMS Enhanced Traffic Management System
10:08AM 59.9075 -19.3968 288° West  Level FlightAware Approximate
10:09AM 59.9477 -19.6565 287° West  Level FlightAware Approximate
10:10AM 59.9874 -19.9168 287° West  Level FlightAware Approximate
10:11AM 60.0252 -20.1787 286° West  Level FlightAware Approximate
10:12AM 60.0616 -20.4415 286° West  Level FlightAware Approximate
10:13AM 60.2239 -21.6674 284° West 516 594 32,000  Level FlightAware Transoceanic
10:14AM 60.2592 -21.9474 284° West 516 594 32,000  Level FlightAware Transoceanic
10:15AM 60.2939 -22.2281 284° West 516 594 32,000  Level FlightAware Transoceanic
10:15AM 60.2970 -22.2490 284° West 510 587 32,000  Level FlightAware
10:16AM 60.3280 -22.5093 284° West 516 594 32,000  Level FlightAware Transoceanic
10:16AM 60.3240 -22.4860 283° West 510 587 32,000  Level FlightAware
10:17AM 60.3400 -22.6280 283° West 510 587 32,000  Level FlightAware
10:18AM 60.3570 -22.7700 284° West 510 587 32,000  Level FlightAware
10:19AM 60.3850 -23.0190 283° West 510 587 32,000  Level FlightAware
10:19AM 60.4070 -23.2130 283° West 510 587 32,000  Level FlightAware
10:20AM 60.4220 -23.3480 283° West 510 587 32,000  Level FlightAware
10:21AM 60.4500 -23.5930 283° West 510 587 32,000  Level FlightAware
10:22AM 60.5080 -24.0950 283° West 508 585 32,000  Level FlightAware
10:23AM 60.5330 -24.3280 282° West 508 585 32,000  Level FlightAware
10:23AM 60.5480 -24.4720 282° West 508 585 32,000  Level FlightAware
10:24AM 60.5620 -24.6070 282° West 508 585 32,000  Level FlightAware
10:25AM 60.5920 -24.9140 281° West 507 583 32,000  Level FlightAware
10:26AM 60.6160 -25.1660 281° West 507 583 32,000  Level FlightAware
10:27AM 60.6350 -25.3570 282° West 507 583 32,000  Level FlightAware
10:28AM 60.6620 -25.6490 281° West 507 583 32,000  Level FlightAware
10:29AM 60.6760 -25.7960 281° West 507 583 32,000  Level FlightAware
10:30AM 60.6990 -26.0400 281° West 507 583 32,000  Level FlightAware
10:30AM 60.7120 -26.1760 281° West 507 583 32,000  Level FlightAware
10:31AM 60.7310 -26.3720 281° West 507 583 32,000  Level FlightAware
10:32AM 60.7450 -26.5210 281° West 507 583 32,000  Level FlightAware
10:32AM 60.7630 -26.7130 281° West 507 583 32,000  Level FlightAware
10:33AM 60.7770 -26.8570 281° West 507 583 32,000  Level FlightAware
10:34AM 60.7950 -27.0500 281° West 507 583 32,000  Level FlightAware
10:34AM 60.8090 -27.1980 281° West 507 583 32,000  Level FlightAware
10:37AM 60.8528 -27.7686 279° West  Level FlightAware Approximate
10:38AM 60.8731 -28.0452 279° West  Level FlightAware Approximate
10:39AM 60.8929 -28.3222 278° West  Level FlightAware Approximate
10:40AM 60.9121 -28.5995 278° West  Level FlightAware Approximate
10:41AM 60.9307 -28.8771 278° West  Level FlightAware Approximate
10:42AM 60.9488 -29.1551 278° West  Level FlightAware Approximate
10:43AM 60.9662 -29.4334 277° West  Level FlightAware Approximate
10:44AM 60.9831 -29.7120 277° West  Level FlightAware Approximate
10:45AM 60.9995 -29.9908 277° West  Level FlightAware Approximate
10:46AM 61.0355 -30.2619 286° West  Level FlightAware Approximate
10:47AM 61.0717 -30.5332 286° West  Level FlightAware Approximate
10:48AM 61.1073 -30.8052 285° West  Level FlightAware Approximate
10:49AM 61.1424 -31.0777 285° West  Level FlightAware Approximate
10:50AM 61.1770 -31.3509 285° West  Level FlightAware Approximate
10:51AM 61.2110 -31.6247 285° West  Level FlightAware Approximate
10:52AM 61.2444 -31.8990 284° West  Level FlightAware Approximate
10:53AM 61.2773 -32.1739 284° West  Level FlightAware Approximate
10:54AM 61.3096 -32.4494 284° West  Level FlightAware Approximate
10:55AM 61.3414 -32.7255 284° West  Level FlightAware Approximate
10:56AM 61.3726 -33.0021 283° West  Level FlightAware Approximate
10:57AM 61.4034 -33.2791 284° West  Level FlightAware Approximate
10:58AM 61.4353 -33.5560 284° West  Level FlightAware Approximate
10:59AM 61.4667 -33.8333 283° West  Level FlightAware Approximate
11:00AM 61.4975 -34.1112 283° West  Level FlightAware Approximate
11:01AM 61.5278 -34.3897 283° West  Level FlightAware Approximate
11:02AM 61.5575 -34.6687 283° West  Level FlightAware Approximate
11:03AM 61.5865 -34.9482 282° West  Level FlightAware Approximate
11:04AM 61.6147 -35.2285 282° West  Level FlightAware Approximate
11:05AM 61.6422 -35.5092 282° West  Level FlightAware Approximate
11:06AM 61.6692 -35.7904 282° West  Level FlightAware Approximate
11:07AM 61.6956 -36.0721 281° West  Level FlightAware Approximate
11:08AM 61.7215 -36.3543 281° West  Level FlightAware Approximate
11:09AM 61.7467 -36.6370 281° West  Level FlightAware Approximate
11:10AM 61.7714 -36.9201 281° West  Level FlightAware Approximate
11:11AM 61.7955 -37.2037 280° West  Level FlightAware Approximate
11:12AM 61.8190 -37.4877 280° West  Level FlightAware Approximate
11:13AM 61.8419 -37.7721 280° West  Level FlightAware Approximate
11:14AM 61.8642 -38.0570 280° West  Level FlightAware Approximate
11:15AM 61.8859 -38.3423 279° West  Level FlightAware Approximate
11:16AM 61.9071 -38.6279 279° West  Level FlightAware Approximate
11:17AM 61.9276 -38.9140 279° West  Level FlightAware Approximate
11:18AM 61.9476 -39.2004 279° West  Level FlightAware Approximate
11:19AM 61.9669 -39.4872 278° West  Level FlightAware Approximate
11:20AM 61.9857 -39.7743 278° West  Level FlightAware Approximate
11:21AM 62.0084 -40.0598 287° West  Level FlightAware Approximate
11:22AM 62.0470 -40.3383 287° West  Level FlightAware Approximate
11:23AM 62.0850 -40.6175 286° West  Level FlightAware Approximate
11:24AM 62.1224 -40.8975 286° West  Level FlightAware Approximate
11:25AM 62.1593 -41.1781 286° West  Level FlightAware Approximate
11:26AM 62.1956 -41.4594 286° West  Level FlightAware Approximate
11:27AM 62.2313 -41.7413 285° West  Level FlightAware Approximate
11:28AM 62.2665 -42.0239 285° West  Level FlightAware Approximate
11:29AM 62.3011 -42.3072 285° West  Level FlightAware Approximate
11:30AM 62.3351 -42.5911 285° West  Level FlightAware Approximate
11:31AM 62.3686 -42.8757 284° West  Level FlightAware Approximate
11:32AM 62.4014 -43.1609 284° West  Level FlightAware Approximate
11:33AM 62.4337 -43.4467 284° West  Level FlightAware Approximate
11:34AM 62.4654 -43.7332 284° West  Level FlightAware Approximate
11:35AM 62.4965 -44.0202 283° West  Level FlightAware Approximate
11:36AM 62.5270 -44.3078 283° West  Level FlightAware Approximate
11:37AM 62.5569 -44.5960 283° West  Level FlightAware Approximate
11:38AM 62.5862 -44.8848 283° West  Level FlightAware Approximate
11:39AM 62.6149 -45.1741 282° West  Level FlightAware Approximate
11:40AM 62.6431 -45.4640 282° West  Level FlightAware Approximate
11:41AM 62.6706 -45.7545 282° West  Level FlightAware Approximate
11:42AM 62.6975 -46.0455 282° West  Level FlightAware Approximate
11:43AM 62.7238 -46.3370 281° West  Level FlightAware Approximate
11:44AM 62.7496 -46.6290 281° West  Level FlightAware Approximate
11:45AM 62.7747 -46.9215 281° West  Level FlightAware Approximate
11:46AM 62.7992 -47.2145 280° West  Level FlightAware Approximate
11:47AM 62.8231 -47.5080 280° West  Level FlightAware Approximate
11:48AM 62.8463 -47.8020 280° West  Level FlightAware Approximate
11:49AM 62.8690 -48.0964 280° West  Level FlightAware Approximate
11:49AM 62.9780 -49.6390 280° West 530 610 32,000  Level FlightAware
11:49AM 62.9880 -49.7990 278° West 531 611 32,000  Level FlightAware
11:50AM 63.0080 -50.0490 280° West 534 615 32,000  Level FlightAware
11:51AM 63.0380 -50.2790 286° West 535 616 32,000  Level FlightAware
11:51AM 63.0640 -50.4610 288° West 535 616 32,000  Level FlightAware
11:52AM 63.0940 -50.6860 287° West 535 616 32,000  Level FlightAware
11:52AM 63.1220 -50.8950 287° West 536 617 32,000  Level FlightAware
11:53AM 63.1460 -51.0790 286° West 537 618 32,000  Level FlightAware
11:54AM 63.1670 -51.2370 286° West 538 619 32,000  Level FlightAware
11:54AM 63.1940 -51.4540 286° West 539 620 32,000  Level FlightAware
11:55AM 63.2220 -51.6720 286° West 539 620 32,000  Level FlightAware
11:56AM 63.2490 -51.8910 285° West 540 621 32,000  Level FlightAware
11:56AM 63.2800 -52.1360 286° West 539 620 32,000  Level FlightAware
11:57AM 63.3050 -52.3440 285° West 539 620 32,000  Level FlightAware
11:58AM 63.3290 -52.5480 285° West 539 620 32,000  Level FlightAware
11:58AM 63.3540 -52.7570 285° West 539 620 32,000  Level FlightAware
11:59AM 63.3820 -53.0030 284° West 538 619 32,000  Level FlightAware
12:00PM 63.4030 -53.1850 285° West 538 619 32,000  Level FlightAware
12:00PM 63.4260 -53.3900 284° West 537 618 32,000  Level FlightAware
12:01PM 63.4540 -53.6370 284° West 538 619 32,000  Level FlightAware
12:02PM 63.4830 -53.9150 283° West 538 619 32,000  Level FlightAware
12:03PM 63.5000 -54.0810 283° West 538 619 32,000  Level FlightAware
12:03PM 63.5220 -54.3030 283° West 538 619 32,000  Level FlightAware
12:04PM 63.5400 -54.4690 284° West 538 619 32,000  Level FlightAware
12:05PM 63.5690 -54.7520 283° West 538 619 32,000  Level FlightAware
12:06PM 63.5860 -54.9180 283° West 538 619 32,000  Level FlightAware
12:07PM 63.6150 -55.2060 283° West 538 619 32,000  Level FlightAware
12:07PM 63.6330 -55.3780 283° West 538 619 32,000  Level FlightAware
12:08PM 63.6560 -55.6000 283° West 538 619 32,000  Level FlightAware
12:09PM 63.6730 -55.7720 283° West 538 619 32,000  Level FlightAware
12:09PM 63.6960 -55.9960 283° West 538 619 32,000  Level FlightAware
12:10PM 63.7500 -56.4500 268° West 540 621 32,000  Level Gander Center
12:10PM 63.7140 -56.1680 283° West 538 619 32,000  Level FlightAware
12:11PM 63.7310 -56.3400 283° West 538 619 32,000  Level FlightAware
12:11PM 63.7833 -56.7833 283° West 550 633 32,000  Level Gander Center
12:12PM 63.8000 -57.1667 276° West 550 633 32,000 60 Level Gander Center
12:13PM 63.7237 -56.8937 269° West  Level Estimated
12:13PM 63.8500 -57.5000 289° West 550 633 32,200  Level Gander Center
12:14PM 63.7188 -57.2012 268° West  Level Estimated
12:14PM 63.8667 -57.8333 277° West 550 633 33,900  Level Gander Center
12:15PM 63.7132 -57.5085 268° West  Level Estimated
12:15PM 63.9000 -58.1667 283° West 540 621 34,000  Level Gander Center
12:16PM 63.9167 -58.5000 277° West 540 621 34,000  Level Gander Center
12:17PM 63.9500 -58.8333 283° West 540 621 34,000  Level Gander Center
12:18PM 63.9667 -59.0667 279° West 540 621 34,000  Level Montreal Center
12:19PM 63.9833 -59.4000 277° West 530 610 34,000  Level Montreal Center
12:20PM 64.0000 -59.7500 276° West 540 621 34,000  Level Montreal Center
12:21PM 64.0167 -60.0833 277° West 540 621 34,000  Level Montreal Center
12:22PM 64.0167 -60.4333 270° West 540 621 34,000  Level Montreal Center
12:23PM 64.0333 -60.7833 276° West 540 621 34,000  Level Montreal Center
12:24PM 64.0333 -61.2000 270° West 540 621 34,000  Level Gander Center
12:25PM 64.0333 -61.5500 270° West 540 621 34,000  Level Gander Center
12:26PM 64.0333 -61.8833 270° West 550 633 34,000  Level Gander Center
12:27PM 64.0333 -62.2667 270° West 540 621 34,000  Level Gander Center
12:28PM 64.0167 -62.5000 261° West 540 621 34,000  Level Montreal Center
12:29PM 64.0167 -62.8500 270° West 540 621 34,000  Level Montreal Center
12:30PM 64.0167 -63.1667 270° West 540 621 34,000  Level Montreal Center
12:31PM 64.0000 -63.5167 264° West 540 621 34,000  Level Montreal Center
12:32PM 64.0000 -63.8667 270° West 540 621 34,000  Level Montreal Center
12:33PM 63.9833 -64.3000 265° West 550 633 34,000  Level Gander Center
12:34PM 63.9833 -64.6333 270° West 550 633 34,000  Level Gander Center
12:35PM 63.9667 -64.9167 262° West 540 621 34,000  Level Montreal Center
12:36PM 63.9333 -65.2333 257° West 540 621 34,000  Level Montreal Center
12:37PM 63.9333 -65.5833 270° West 540 621 34,000  Level Montreal Center
12:38PM 63.9167 -65.9333 264° West 540 621 34,000  Level Montreal Center
12:39PM 63.8833 -66.2500 257° West 540 621 34,000  Level Montreal Center
12:40PM 63.8833 -66.6000 270° West 550 633 34,000  Level Montreal Center
12:41PM 63.8667 -66.9500 264° West 550 633 34,000  Level Montreal Center
12:42PM 63.8333 -67.3000 258° West 550 633 34,000  Level Montreal Center
12:43PM 63.8167 -67.6500 264° West 550 633 34,000  Level Montreal Center
12:44PM 63.8000 -68.0000 264° West 550 633 34,000  Level Montreal Center
12:45PM 63.7667 -68.3500 258° West 550 633 34,000  Level Montreal Center
12:46PM 63.7333 -68.9167 263° West 560 644 34,000  Level Gander Center
12:47PM 63.7000 -69.2500 257° West 560 644 34,000  Level Gander Center
12:48PM 63.6667 -69.6167 259° West 560 644 34,000  Level Gander Center
12:49PM 63.6333 -69.9333 257° West 560 644 34,000  Level Gander Center
12:50PM 63.6167 -70.2667 264° West 560 644 34,000  Level Gander Center
12:51PM 63.5833 -70.6333 259° West 560 644 34,000  Level Gander Center
12:52PM 63.5333 -70.9667 252° West 560 644 34,000  Level Gander Center
12:53PM 63.5167 -71.3167 264° West 560 644 34,000  Level Gander Center
12:54PM 63.4833 -71.6500 258° West 560 644 34,000  Level Gander Center
12:55PM 63.4333 -71.9667 251° West 560 644 34,000  Level Gander Center
12:56PM 63.4000 -72.3000 258° West 560 644 34,000  Level Gander Center
12:57PM 63.3667 -72.6167 257° West 560 644 34,000  Level Gander Center
12:58PM 63.3333 -72.9333 257° West 560 644 34,000  Level Gander Center
01:00PM 63.2833 -73.3167 254° West 550 633 34,000  Level Montreal Center
01:01PM 63.2500 -73.6167 256° West 550 633 34,000  Level Montreal Center
01:01PM 63.2167 -73.9667 258° West 560 644 34,000  Level Gander Center
01:02PM 63.1667 -74.2833 251° West 550 633 34,000  Level Gander Center
01:03PM 63.1167 -74.6000 251° West 550 633 34,000  Level Gander Center
01:04PM 63.0833 -74.9167 257° West 550 633 34,000  Level Gander Center
01:05PM 63.0333 -75.2333 251° West 550 633 34,000  Level Gander Center
01:06PM 63.0000 -75.5500 257° West 550 633 34,000  Level Gander Center
01:08PM 62.9540 -75.8639 252° West  Level FlightAware Approximate
01:15PM 62.6402 -77.8676 252° West  Level FlightAware Approximate
01:16PM 62.5931 -78.1504 250° West  Level FlightAware Approximate
01:17PM 62.5454 -78.4322 250° West  Level FlightAware Approximate
01:18PM 62.4971 -78.7131 250° West  Level FlightAware Approximate
01:19PM 62.4483 -78.9931 249° West  Level FlightAware Approximate
01:20PM 62.3989 -79.2722 249° West  Level FlightAware Approximate
01:21PM 62.3489 -79.5503 249° West  Level FlightAware Approximate
01:22PM 62.2984 -79.8276 249° West  Level FlightAware Approximate
01:23PM 62.2522 -80.1078 254° West  Level FlightAware Approximate
01:24PM 62.2135 -80.3928 254° West  Level FlightAware Approximate
01:25PM 62.1742 -80.6771 254° West  Level FlightAware Approximate
01:26PM 62.1350 -80.9554 253° West  Level FlightAware Approximate
01:27PM 62.0953 -81.2330 253° West  Level FlightAware Approximate
01:28PM 62.0551 -81.5099 253° West  Level FlightAware Approximate
01:29PM 62.0143 -81.7860 253° West  Level FlightAware Approximate
01:30PM 61.9729 -82.0613 252° West  Level FlightAware Approximate
01:31PM 61.9310 -82.3360 252° West  Level FlightAware Approximate
01:32PM 61.8885 -82.6098 252° West  Level FlightAware Approximate
01:33PM 61.8427 -82.8808 250° West  Level FlightAware Approximate
01:34PM 61.7963 -83.1509 250° West  Level FlightAware Approximate
01:35PM 61.7494 -83.4202 250° West  Level FlightAware Approximate
01:36PM 61.7019 -83.6886 250° West  Level FlightAware Approximate
01:37PM 61.6540 -83.9563 249° West  Level FlightAware Approximate
01:38PM 61.6055 -84.2231 249° West  Level FlightAware Approximate
01:39PM 61.5565 -84.4890 249° West  Level FlightAware Approximate
01:40PM 61.5070 -84.7541 249° West  Level FlightAware Approximate
01:41PM 61.4569 -85.0184 248° West  Level FlightAware Approximate
01:42PM 61.4064 -85.2818 248° West  Level FlightAware Approximate
01:43PM 61.3553 -85.5444 248° West  Level FlightAware Approximate
01:44PM 61.3038 -85.8061 248° West  Level FlightAware Approximate
01:45PM 61.2517 -86.0669 248° West  Level FlightAware Approximate
01:46PM 61.1992 -86.3269 247° West  Level FlightAware Approximate
01:47PM 61.1461 -86.5860 247° West  Level FlightAware Approximate
01:48PM 61.0926 -86.8443 247° West  Level FlightAware Approximate
01:49PM 61.0385 -87.1016 247° West  Level FlightAware Approximate
01:50PM 60.9840 -87.3581 246° West  Level FlightAware Approximate
01:51PM 60.9290 -87.6137 246° West  Level FlightAware Approximate
01:52PM 60.8735 -87.8684 246° West  Level FlightAware Approximate
01:53PM 60.8175 -88.1222 246° West  Level FlightAware Approximate
01:54PM 60.7611 -88.3752 246° West  Level FlightAware Approximate
01:55PM 60.7042 -88.6272 245° Southwest  Level FlightAware Approximate
01:56PM 60.6468 -88.8783 245° Southwest  Level FlightAware Approximate
01:57PM 60.5889 -89.1286 245° Southwest  Level FlightAware Approximate
01:58PM 60.5306 -89.3779 245° Southwest  Level FlightAware Approximate
01:59PM 60.4718 -89.6264 244° Southwest  Level FlightAware Approximate
02:00PM 60.4125 -89.8739 244° Southwest  Level FlightAware Approximate
02:01PM 60.3528 -90.1206 244° Southwest  Level FlightAware Approximate
02:02PM 60.2927 -90.3663 244° Southwest  Level FlightAware Approximate
02:03PM 60.2320 -90.6112 244° Southwest  Level FlightAware Approximate
02:04PM 60.1710 -90.8551 243° Southwest  Level FlightAware Approximate
02:05PM 60.1095 -91.0981 243° Southwest  Level FlightAware Approximate
02:06PM 60.0475 -91.3402 243° Southwest  Level FlightAware Approximate
02:07PM 59.9851 -91.5814 243° Southwest  Level FlightAware Approximate
02:08PM 59.9223 -91.8217 243° Southwest  Level FlightAware Approximate
02:09PM 59.8590 -92.0611 242° Southwest  Level FlightAware Approximate
02:10PM 59.7953 -92.2995 242° Southwest  Level FlightAware Approximate
02:11PM 59.7312 -92.5371 242° Southwest  Level FlightAware Approximate
02:12PM 59.6666 -92.7737 242° Southwest  Level FlightAware Approximate
02:13PM 59.6016 -93.0094 241° Southwest  Level FlightAware Approximate
02:14PM 59.5362 -93.2444 241° Southwest  Level FlightAware Approximate
02:15PM 59.4703 -93.4784 241° Southwest  Level FlightAware Approximate
02:15PM 59.3833 -94.0500 240° Southwest 450 518 38,000  Level Edmonton Center
02:16PM 59.4040 -93.7115 241° Southwest  Level FlightAware Approximate
02:16PM 59.3167 -94.2500 237° Southwest 480 552 38,000  Level Edmonton Center
02:17PM 59.3373 -93.9437 241° Southwest  Level FlightAware Approximate
02:17PM 59.2333 -94.5000 237° Southwest 480 552 38,000  Level Edmonton Center
02:18PM 59.2702 -94.1750 240° Southwest  Level FlightAware Approximate
02:18PM 59.1667 -94.7000 237° Southwest 480 552 38,000  Level Edmonton Center
02:19PM 59.2027 -94.4054 240° Southwest  Level FlightAware Approximate
02:19PM 59.1000 -94.9500 243° Southwest 490 564 38,000  Level Edmonton Center
02:20PM 59.1348 -94.6348 240° Southwest  Level FlightAware Approximate
02:20PM 59.0167 -95.1667 233° Southwest 480 552 38,000  Level Edmonton Center
02:21PM 59.0665 -94.8634 240° Southwest  Level FlightAware Approximate
02:21PM 58.9500 -95.3833 239° Southwest 480 552 38,000  Level Edmonton Center
02:22PM 58.8833 -95.6000 239° Southwest 480 552 38,000  Level Edmonton Center
02:23PM 58.8167 -95.8167 239° Southwest 470 541 38,000  Level Edmonton Center
02:24PM 58.7333 -96.0500 236° Southwest 480 552 38,000  Level Edmonton Center
02:25PM 58.6667 -96.3000 243° Southwest 480 552 38,000  Level Edmonton Center
02:26PM 58.5833 -96.4833 229° Southwest 480 552 38,000  Level Edmonton Center
02:27PM 58.5167 -96.6833 238° Southwest 470 541 38,000  Level Edmonton Center
02:28PM 58.4500 -96.9333 243° Southwest 470 541 38,000  Level Edmonton Center
02:29PM 58.3667 -97.1167 229° Southwest 470 541 38,000  Level Edmonton Center
02:30PM 58.3000 -97.3500 242° Southwest 470 541 38,000  Level Edmonton Center
02:31PM 58.2500 -97.6000 249° West 490 564 38,000  Level Winnipeg Center
02:32PM 58.1500 -97.8167 229° Southwest 480 552 38,000  Level Winnipeg Center
02:33PM 58.0833 -98.0000 236° Southwest 480 552 38,000  Level Winnipeg Center
02:34PM 58.0167 -98.2167 240° Southwest 480 552 38,000  Level Winnipeg Center
02:35PM 57.9333 -98.4333 234° Southwest 480 552 38,000  Level Winnipeg Center
02:36PM 57.8667 -98.6333 238° Southwest 480 552 38,000  Level Winnipeg Center
02:37PM 57.7833 -98.8333 232° Southwest 480 552 38,000  Level Winnipeg Center
02:38PM 57.7167 -99.0500 240° Southwest 480 552 38,000  Level Winnipeg Center
02:39PM 57.6167 -99.2667 229° Southwest 480 552 38,000  Level Winnipeg Center
02:40PM 57.5500 -99.4500 236° Southwest 480 552 38,000  Level Winnipeg Center
02:41PM 57.4667 -99.6667 234° Southwest 480 552 38,000  Level Winnipeg Center
02:42PM 57.4000 -99.8833 240° Southwest 480 552 38,000  Level Winnipeg Center
02:43PM 57.3167 -100.0833 232° Southwest 480 552 38,000  Level Winnipeg Center
02:44PM 57.2333 -100.2667 230° Southwest 480 552 38,000  Level Winnipeg Center
02:45PM 57.1667 -100.4500 236° Southwest 480 552 38,000  Level Winnipeg Center
02:46PM 57.0833 -100.6500 233° Southwest 480 552 38,000  Level Winnipeg Center
02:47PM 57.0000 -100.8667 235° Southwest 470 541 38,000  Level Winnipeg Center
02:48PM 56.9333 -101.0333 234° Southwest 470 541 38,000  Level Winnipeg Center
02:49PM 56.8500 -101.2500 235° Southwest 470 541 38,000  Level Winnipeg Center
02:50PM 56.7667 -101.4167 228° Southwest 470 541 38,000  Level Winnipeg Center
02:51PM 56.6833 -101.6167 233° Southwest 470 541 38,000  Level Winnipeg Center
02:52PM 56.6167 -101.8000 237° Southwest 470 541 38,000  Level Winnipeg Center
02:53PM 56.5167 -102.0000 228° Southwest 470 541 38,000  Level Winnipeg Center
02:54PM 56.4500 -102.2000 239° Southwest 470 541 38,000  Level Winnipeg Center
02:55PM 56.3667 -102.3667 228° Southwest 470 541 38,000  Level Winnipeg Center
02:56PM 56.2833 -102.5333 228° Southwest 470 541 38,000  Level Winnipeg Center
02:57PM 56.1833 -102.7333 228° Southwest 480 552 38,000  Level Winnipeg Center
02:58PM 56.1000 -102.9000 228° Southwest 470 541 38,000  Level Winnipeg Center
02:59PM 56.0000 -103.0667 223° Southwest 470 541 38,000  Level Winnipeg Center
03:00PM 55.9167 -103.2333 228° Southwest 470 541 38,000  Level Winnipeg Center
03:01PM 55.8167 -103.4000 223° Southwest 470 541 38,000  Level Winnipeg Center
03:02PM 55.7333 -103.5667 228° Southwest 470 541 38,000  Level Winnipeg Center
03:03PM 55.6333 -103.7333 223° Southwest 470 541 38,000  Level Winnipeg Center
03:04PM 55.5500 -103.8833 226° Southwest 470 541 38,000  Level Winnipeg Center
03:05PM 55.4500 -104.0833 229° Southwest 470 541 38,000  Level Winnipeg Center
03:06PM 55.3500 -104.2500 223° Southwest 470 541 38,000  Level Winnipeg Center
03:07PM 55.2667 -104.4000 226° Southwest 470 541 38,000  Level Winnipeg Center
03:08PM 55.1833 -104.5333 222° Southwest 470 541 38,000  Level Winnipeg Center
03:09PM 55.1000 -104.7000 229° Southwest 470 541 38,000  Level Winnipeg Center
03:10PM 55.0000 -104.8500 221° Southwest 470 541 38,000  Level Winnipeg Center
03:11PM 54.9000 -105.0333 227° Southwest 470 541 38,000  Level Winnipeg Center
03:12PM 54.8167 -105.2000 229° Southwest 460 529 38,000  Level Winnipeg Center
03:13PM 54.7167 -105.3500 221° Southwest 460 529 38,000  Level Winnipeg Center
03:14PM 54.6167 -105.5000 221° Southwest 460 529 38,000  Level Winnipeg Center
03:15PM 54.5333 -105.6667 229° Southwest 460 529 38,000  Level Winnipeg Center
03:16PM 54.4500 -105.7833 219° Southwest 460 529 38,000  Level Winnipeg Center
03:17PM 54.3333 -105.9667 223° Southwest 460 529 38,000  Level Winnipeg Center
03:18PM 54.2500 -106.1167 226° Southwest 460 529 38,000  Level Winnipeg Center
03:19PM 54.1833 -106.2833 236° Southwest 450 518 38,000  Level Winnipeg Center
03:20PM 54.1167 -106.4667 238° Southwest 450 518 38,000  Level Winnipeg Center
03:21PM 54.0333 -106.6167 227° Southwest 460 529 38,000  Level Winnipeg Center
03:22PM 53.9333 -106.8000 227° Southwest 470 541 38,000  Level Winnipeg Center
03:23PM 53.8333 -106.9167 215° Southwest 460 529 38,000  Level Edmonton Center
03:24PM 53.7333 -107.0500 218° Southwest 460 529 38,000  Level Edmonton Center
03:25PM 53.6667 -107.2500 241° Southwest 460 529 38,000  Level Winnipeg Center
03:26PM 53.5667 -107.3833 218° Southwest 460 529 38,000  Level Winnipeg Center
03:27PM 53.4667 -107.5333 222° Southwest 460 529 38,000  Level Winnipeg Center
03:28PM 53.3667 -107.6833 222° Southwest 460 529 38,000  Level Winnipeg Center
03:29PM 53.2667 -107.8333 222° Southwest 460 529 38,000  Level Winnipeg Center
03:30PM 53.1667 -107.9667 219° Southwest 470 541 38,000  Level Winnipeg Center
03:31PM 53.1000 -108.1167 234° Southwest 470 541 38,000  Level Winnipeg Center
03:32PM 52.9833 -108.2500 215° Southwest 470 541 38,000  Level Winnipeg Center
03:33PM 52.9000 -108.4000 227° Southwest 470 541 38,000  Level Winnipeg Center
03:34PM 52.7833 -108.5500 218° Southwest 470 541 38,000  Level Winnipeg Center
03:35PM 52.7000 -108.6833 224° Southwest 470 541 38,000  Level Winnipeg Center
03:36PM 52.5833 -108.8000 211° Southwest 460 529 38,000  Level Edmonton Center
03:42PM 52.0990 -109.5210 211° Southwest 38,000  Level FlightAware
03:42PM 52.0410 -109.6000 220° Southwest 463 533 38,000  Level FlightAware
03:43PM 51.9700 -109.6990 221° Southwest 453 521 38,000  Level FlightAware
03:44PM 51.9050 -109.7910 221° Southwest 451 519 38,000  Level FlightAware
03:44PM 51.8420 -109.8770 220° Southwest 450 518 38,000  Level FlightAware
03:45PM 51.7720 -109.9740 221° Southwest 450 518 38,000  Level FlightAware
03:46PM 51.7070 -110.0630 220° Southwest 449 517 38,000  Level FlightAware
03:47PM 51.6350 -110.1650 221° Southwest 454 522 38,000  Level FlightAware
03:47PM 51.5840 -110.2360 221° Southwest 453 521 38,000  Level FlightAware
03:48PM 51.5160 -110.3300 221° Southwest 446 513 38,000  Level FlightAware
03:49PM 51.4440 -110.4280 220° Southwest 447 514 38,000  Level FlightAware
03:49PM 51.3910 -110.5030 221° Southwest 447 514 38,000  Level FlightAware
03:50PM 51.3160 -110.6050 220° Southwest 447 514 38,000  Level FlightAware
03:51PM 51.2530 -110.6920 221° Southwest 447 514 38,000  Level FlightAware
03:51PM 51.1810 -110.7900 220° Southwest 446 513 38,000  Level FlightAware
03:52PM 51.1180 -110.8740 220° Southwest 447 514 38,000  Level FlightAware
03:53PM 51.0460 -110.9730 221° Southwest 445 512 38,000  Level FlightAware
03:53PM 50.9820 -111.0580 220° Southwest 445 512 38,000  Level FlightAware
03:54PM 50.9200 -111.1410 220° Southwest 445 512 38,000  Level FlightAware
03:55PM 50.8470 -111.2390 220° Southwest 445 512 38,000  Level FlightAware
03:55PM 50.7830 -111.3240 220° Southwest 446 513 38,000  Level FlightAware
03:56PM 50.7110 -111.4170 219° Southwest 445 512 38,000  Level FlightAware
03:57PM 50.6490 -111.5000 220° Southwest 446 513 38,000  Level FlightAware
03:58PM 50.5740 -111.5990 220° Southwest 445 512 38,000  Level FlightAware
03:58PM 50.5240 -111.6630 219° Southwest 445 512 38,000  Level FlightAware
03:59PM 50.4410 -111.7690 219° Southwest 444 511 38,000  Level FlightAware
04:00PM 50.3720 -111.8580 219° Southwest 445 512 38,000  Level FlightAware
04:00PM 50.3080 -111.9400 219° Southwest 445 512 38,000  Level FlightAware
04:01PM 50.2460 -112.0190 219° Southwest 452 520 38,000  Level FlightAware
04:02PM 50.1750 -112.1100 219° Southwest 452 520 38,000  Level FlightAware
04:02PM 50.1010 -112.2020 219° Southwest 454 522 38,000  Level FlightAware
04:03PM 50.0360 -112.2840 219° Southwest 455 524 38,000  Level FlightAware
04:04PM 49.9620 -112.3770 219° Southwest 455 524 38,000  Level FlightAware
04:05PM 49.8960 -112.4610 219° Southwest 455 524 38,000  Level FlightAware
04:05PM 49.8310 -112.5410 218° Southwest 456 525 38,000  Level FlightAware
04:06PM 49.7570 -112.6320 218° Southwest 457 526 38,000  Level FlightAware
04:07PM 49.6660 -112.7450 219° Southwest 457 526 38,000  Level FlightAware
04:08PM 49.6000 -112.8260 219° Southwest 457 526 38,000  Level FlightAware
04:08PM 49.5250 -112.9190 219° Southwest 457 526 38,000  Level FlightAware
04:09PM 49.4600 -112.9980 218° Southwest 456 525 38,000  Level FlightAware
04:10PM 49.3960 -113.0760 218° Southwest 456 525 38,000  Level FlightAware
04:10PM 49.3190 -113.1690 218° Southwest 455 524 38,000  Level FlightAware
04:11PM 49.2280 -113.2780 218° Southwest 455 524 38,000  Level FlightAware
04:12PM 49.1540 -113.3670 218° Southwest 455 524 38,000  Level FlightAware
04:13PM 49.0950 -113.4370 218° Southwest 455 524 38,000  Level FlightAware
04:13PM 49.0300 -113.5160 219° Southwest 455 524 38,000  Level FlightAware
04:15PM 48.8810 -113.6920 218° Southwest 454 522 38,000  Level FlightAware
04:16PM 48.8140 -113.7730 219° Southwest 454 522 38,000  Level FlightAware
04:16PM 48.7190 -113.8830 217° Southwest 450 518 38,000  Level FlightAware
04:17PM 48.6500 -113.9640 218° Southwest 449 517 38,000  Level FlightAware
04:18PM 48.5840 -114.0400 217° Southwest 449 517 38,000  Level FlightAware
04:19PM 48.5100 -114.1260 218° Southwest 447 514 38,000  Level FlightAware
04:19PM 48.4210 -114.2290 218° Southwest 448 516 38,000  Level FlightAware
04:20PM 48.3320 -114.3310 217° Southwest 448 516 38,000  Level FlightAware
04:21PM 48.2350 -114.4420 217° Southwest 448 516 38,000  Level FlightAware
04:22PM 48.1670 -114.5220 218° Southwest 449 517 38,000  Level FlightAware
04:23PM 48.0930 -114.6050 217° Southwest 450 518 38,000  Level FlightAware
04:24PM 48.0340 -114.6710 217° Southwest 450 518 38,000  Level FlightAware
04:24PM 47.9820 -114.7300 217° Southwest 450 518 38,000  Level FlightAware
04:25PM 47.9310 -114.7870 217° Southwest 450 518 38,000  Level FlightAware
04:26PM 47.8630 -114.8630 217° Southwest 450 518 38,000  Level FlightAware
04:26PM 47.8130 -114.9200 217° Southwest 450 518 38,000  Level FlightAware
04:27PM 47.7450 -114.9960 217° Southwest 450 518 38,000  Level FlightAware
04:28PM 47.6920 -115.0550 217° Southwest 450 518 38,000  Level FlightAware
04:28PM 47.6250 -115.1310 217° Southwest 450 518 38,000  Level FlightAware
04:29PM 47.5740 -115.1880 217° Southwest 450 518 38,000  Level FlightAware
04:30PM 47.5060 -115.2630 217° Southwest 450 518 38,000  Level FlightAware
04:30PM 47.4550 -115.3200 217° Southwest 450 518 38,000  Level FlightAware
04:31PM 47.3690 -115.4160 217° Southwest 450 518 38,000  Level FlightAware
04:32PM 47.3150 -115.4760 217° Southwest 450 518 38,000  Level FlightAware
04:33PM 47.2640 -115.5320 217° Southwest 450 518 38,000  Level FlightAware
04:34PM 47.0439 -115.7658 217° Southwest 437 503 38,000  Level Seattle Center
04:35PM 46.9269 -115.8925 217° Southwest 435 501 38,000  Level Seattle Center
04:36PM 46.8283 -115.9967 216° Southwest 436 502 38,000  Level Seattle Center
04:41PM 46.2660 -116.5900 216° Southwest 441 507 38,000  Level FlightAware
04:42PM 46.1920 -116.6650 215° Southwest 442 509 38,000  Level FlightAware
04:43PM 46.1320 -116.7270 216° Southwest 442 509 38,000  Level FlightAware
04:43PM 46.0630 -116.7990 216° Southwest 440 506 38,000  Level FlightAware
04:44PM 45.9890 -116.8760 216° Southwest 440 506 38,000  Level FlightAware
04:45PM 45.9280 -116.9370 215° Southwest 440 506 38,000  Level FlightAware
04:45PM 45.8650 -117.0010 215° Southwest 440 506 38,000  Level FlightAware
04:46PM 45.7930 -117.0760 216° Southwest 440 506 38,000  Level FlightAware
04:47PM 45.7260 -117.1440 215° Southwest 441 507 38,000  Level FlightAware
04:47PM 45.6530 -117.2180 215° Southwest 442 509 38,000  Level FlightAware
04:48PM 45.5870 -117.2840 215° Southwest 442 509 38,000  Level FlightAware
04:49PM 45.5190 -117.3530 215° Southwest 441 507 38,000  Level FlightAware
04:50PM 45.4450 -117.4260 215° Southwest 441 507 38,000  Level FlightAware
04:50PM 45.3730 -117.5000 216° Southwest 440 506 38,000  Level FlightAware
04:51PM 45.3120 -117.5600 215° Southwest 440 506 38,000  Level FlightAware
04:52PM 45.2360 -117.6360 215° Southwest 439 505 38,000  Level FlightAware
04:52PM 45.1620 -117.7080 214° Southwest 436 502 38,000  Level FlightAware
04:53PM 45.0970 -117.7740 216° Southwest 435 501 38,000  Level FlightAware
04:54PM 45.0320 -117.8370 214° Southwest 435 501 38,000  Level FlightAware
04:54PM 44.9540 -117.9130 215° Southwest 433 498 38,000  Level FlightAware
04:55PM 44.8860 -117.9730 212° Southwest 432 497 38,000  Level FlightAware
04:56PM 44.8140 -118.0330 211° Southwest 432 497 38,000  Level FlightAware
04:57PM 44.7380 -118.0920 209° Southwest 431 496 38,000  Level FlightAware
04:57PM 44.6820 -118.1380 210° Southwest 432 497 38,000  Level FlightAware
04:58PM 44.6090 -118.1960 209° Southwest 432 497 38,000  Level FlightAware
04:59PM 44.5320 -118.2580 210° Southwest 433 498 38,000  Level FlightAware
04:59PM 44.4700 -118.3080 210° Southwest 435 501 38,000  Level FlightAware
05:00PM 44.3680 -118.3890 210° Southwest 436 502 38,000  Level FlightAware
05:01PM 44.2920 -118.4490 209° Southwest 438 504 38,000  Level FlightAware
05:02PM 44.2200 -118.5060 210° Southwest 438 504 38,000  Level FlightAware
05:02PM 44.1390 -118.5710 210° Southwest 439 505 38,000  Level FlightAware
05:03PM 44.0690 -118.6260 209° Southwest 440 506 38,000  Level FlightAware
05:04PM 43.9900 -118.6880 209° Southwest 440 506 38,000  Level FlightAware
05:04PM 43.9160 -118.7460 209° Southwest 440 506 38,000  Level FlightAware
05:05PM 43.8440 -118.8020 209° Southwest 440 506 38,000  Level FlightAware
05:06PM 43.7740 -118.8570 210° Southwest 441 507 38,000  Level FlightAware
05:06PM 43.6950 -118.9180 209° Southwest 440 506 38,000  Level FlightAware
05:07PM 43.6170 -118.9780 209° Southwest 440 506 38,000  Level FlightAware
05:08PM 43.5480 -119.0320 210° Southwest 440 506 38,000  Level FlightAware
05:09PM 43.4680 -119.0930 209° Southwest 438 504 38,000  Level FlightAware
05:09PM 43.4110 -119.1370 209° Southwest 439 505 38,000  Level FlightAware
05:10PM 43.3320 -119.1970 209° Southwest 439 505 38,000  Level FlightAware
05:10PM 43.2620 -119.2510 209° Southwest 438 504 38,000  Level FlightAware
05:11PM 43.1970 -119.2990 208° Southwest 437 503 38,000  Level FlightAware
05:12PM 43.1310 -119.3500 209° Southwest 438 504 38,000  Level FlightAware
05:12PM 43.0520 -119.4090 209° Southwest 437 503 38,000  Level FlightAware
05:13PM 42.9780 -119.4660 209° Southwest 436 502 38,000  Level FlightAware
05:14PM 42.9020 -119.5230 209° Southwest 437 503 38,000  Level FlightAware
05:15PM 42.8220 -119.5830 209° Southwest 437 503 38,000  Level FlightAware
05:15PM 42.7440 -119.6410 209° Southwest 438 504 38,000  Level FlightAware
05:16PM 42.6760 -119.6930 209° Southwest 439 505 38,000  Level FlightAware
05:17PM 42.6010 -119.7470 208° Southwest 440 506 38,000  Level FlightAware
05:17PM 42.5240 -119.8060 209° Southwest 442 509 38,000  Level FlightAware
05:18PM 42.4480 -119.8620 209° Southwest 443 510 38,000  Level FlightAware
05:19PM 42.3680 -119.9200 208° Southwest 446 513 38,000  Level FlightAware
05:20PM 42.2920 -119.9770 209° Southwest 448 516 38,000  Level FlightAware
05:20PM 42.2140 -120.0340 208° Southwest 449 517 38,000  Level FlightAware
05:21PM 42.1480 -120.0830 209° Southwest 451 519 38,000  Level FlightAware
05:22PM 42.0660 -120.1430 209° Southwest 452 520 38,000  Level FlightAware
05:22PM 41.9920 -120.1970 208° Southwest 453 521 38,000  Level FlightAware
05:23PM 41.9140 -120.2530 208° Southwest 453 521 38,000  Level FlightAware
05:24PM 41.8260 -120.3170 208° Southwest 454 522 38,000  Level FlightAware
05:24PM 41.7590 -120.3660 209° Southwest 455 524 38,000  Level FlightAware
05:25PM 41.6790 -120.4230 208° Southwest 455 524 38,000  Level FlightAware
05:26PM 41.6010 -120.4810 209° Southwest 456 525 38,000  Level FlightAware
05:27PM 41.5250 -120.5350 208° Southwest 457 526 38,000  Level FlightAware
05:27PM 41.4430 -120.5930 208° Southwest 458 527 38,000  Level FlightAware
05:28PM 41.3770 -120.6410 209° Southwest 459 528 38,000  Level FlightAware
05:28PM 41.3070 -120.6900 208° Southwest 459 528 38,000  Level FlightAware
05:29PM 41.2260 -120.7480 208° Southwest 460 529 38,000  Level FlightAware
05:30PM 41.1580 -120.7950 207° Southwest 460 529 38,000  Level FlightAware
05:31PM 41.0810 -120.8500 208° Southwest 461 531 38,000  Level FlightAware
05:31PM 41.0010 -120.9070 208° Southwest 461 531 38,000  Level FlightAware
05:32PM 40.9210 -120.9630 208° Southwest 462 532 38,000  Level FlightAware
05:33PM 40.8410 -121.0190 208° Southwest 463 533 38,000  Level FlightAware
05:33PM 40.7600 -121.0770 208° Southwest 464 534 38,000  Level FlightAware
05:34PM 40.6800 -121.1330 208° Southwest 465 535 38,000  Level FlightAware
05:35PM 40.6040 -121.1840 207° Southwest 465 535 38,000  Level FlightAware
05:36PM 40.5000 -121.2570 208° Southwest 459 528 38,000  Level FlightAware
05:36PM 40.4210 -121.3120 208° Southwest 458 527 38,000  Level FlightAware
05:37PM 40.3560 -121.3560 207° Southwest 458 527 38,000  Level FlightAware
05:38PM 40.2800 -121.4080 208° Southwest 458 527 38,000  Level FlightAware
05:38PM 40.1940 -121.4670 208° Southwest 458 527 38,000  Level FlightAware
05:39PM 40.1280 -121.5130 208° Southwest 458 527 38,000  Level FlightAware
05:40PM 40.0510 -121.5650 207° Southwest 457 526 38,000  Level FlightAware
05:40PM 39.9730 -121.6180 208° Southwest 458 527 38,000  Level FlightAware
05:41PM 39.8870 -121.6770 208° Southwest 457 526 38,000  Level FlightAware
05:42PM 39.8110 -121.7280 207° Southwest 457 526 38,000  Level FlightAware
05:42PM 39.7260 -121.7860 208° Southwest 457 526 38,000  Level FlightAware
05:43PM 39.6490 -121.8370 207° Southwest 457 526 38,000  Level FlightAware
05:44PM 39.5730 -121.8890 208° Southwest 457 526 38,000  Level FlightAware
05:44PM 39.4960 -121.9400 207° Southwest 457 526 38,000  Level FlightAware
05:45PM 39.4210 -121.9910 208° Southwest 456 525 38,000  Level FlightAware
05:46PM 39.3440 -122.0420 207° Southwest 456 525 38,000  Level FlightAware
05:46PM 39.2780 -122.0860 207° Southwest 456 525 38,000  Level FlightAware
05:47PM 39.2000 -122.1380 207° Southwest 456 525 38,000 -660 Level FlightAware
05:48PM 39.1140 -122.1940 207° Southwest 458 527 37,100 -2,160 Descending FlightAware
05:48PM 39.0280 -122.2510 207° Southwest 468 539 34,800 -2,760 Descending FlightAware
05:49PM 38.9520 -122.3020 208° Southwest 460 529 33,300 -2,340 Descending FlightAware
05:50PM 38.8660 -122.3580 207° Southwest 450 518 31,500 -2,400 Descending FlightAware
05:51PM 38.7880 -122.4080 207° Southwest 447 514 29,900 -2,400 Descending FlightAware
05:51PM 38.7080 -122.4610 207° Southwest 440 506 28,200 -2,340 Descending FlightAware
05:52PM 38.6370 -122.5080 207° Southwest 432 497 26,700 -2,220 Descending FlightAware
05:53PM 38.5600 -122.5580 207° Southwest 424 488 25,100 -2,220 Descending FlightAware
05:53PM 38.4980 -122.5980 207° Southwest 418 481 23,800 -2,820 Descending FlightAware
05:54PM 38.4190 -122.6440 205° Southwest 425 489 21,400 -3,180 Descending FlightAware
05:55PM 38.3320 -122.6580 187° South 427 491 19,100 -3,000 Descending FlightAware
05:55PM 38.2740 -122.6580 180° South 424 488 17,700 -2,820 Descending FlightAware
05:56PM 38.1870 -122.6580 180° South 420 483 15,700 -2,640 Descending FlightAware
05:57PM 38.1000 -122.6590 181° South 415 478 13,800 -2,400 Descending FlightAware
05:57PM 38.0240 -122.6620 182° South 405 466 12,300 -2,040 Descending FlightAware
05:58PM 37.9440 -122.6690 184° South 386 444 11,000 -1,020 Descending FlightAware
05:59PM 37.8780 -122.6490 167° South 357 411 10,900  Descending FlightAware
05:59PM 37.8253 -122.5940 140° Southeast 321 369 11,000 60 Climbing FlightAware ADS-B
06:00PM 37.7880 -122.5540 140° Southeast 287 330 11,000  Level FlightAware
06:00PM 37.7746 -122.5390 138° Southeast 274 315 11,000  Level FlightAware ADS-B
06:01PM 37.7249 -122.4860 140° Southeast 258 297 11,000 -120 Level FlightAware ADS-B
06:02PM 37.6963 -122.4550 139° Southeast 257 296 10,900 -120 Descending FlightAware ADS-B
06:02PM 37.6689 -122.4260 140° Southeast 258 297 10,900 60 Level FlightAware ADS-B
06:03PM 37.6412 -122.3970 140° Southeast 257 296 11,000  Climbing FlightAware ADS-B
06:03PM 37.6111 -122.3680 143° Southeast 260 299 10,900 -300 Descending FlightAware ADS-B
06:03PM 37.5999 -122.3620 157° South 253 291 10,800 -1,620 Descending FlightAware ADS-B
06:04PM 37.5742 -122.3480 157° South 251 289 10,000 -1,980 Descending FlightAware ADS-B
06:04PM 37.5572 -122.3390 157° South 253 291 9,500 -1,800 Descending FlightAware ADS-B
06:04PM 37.5409 -122.3300 156° South 252 290 9,100 -1,620 Descending FlightAware ADS-B
06:05PM 37.5252 -122.3210 156° South 245 282 8,700 -1,740 Descending FlightAware ADS-B
06:05PM 37.5072 -122.3100 154° Southeast 242 278 8,200 -1,860 Descending FlightAware ADS-B
06:05PM 37.4912 -122.3010 156° South 242 278 7,700 -1,740 Descending FlightAware ADS-B
06:05PM 37.4751 -122.2920 156° South 240 276 7,300 -1,380 Descending FlightAware ADS-B
06:06PM 37.4637 -122.2860 157° South 232 267 7,100 -1,140 Descending FlightAware ADS-B
06:06PM 37.4535 -122.2800 155° Southeast 222 255 6,900 -1,020 Descending FlightAware ADS-B
06:06PM 37.4419 -122.2730 154° Southeast 209 241 6,700 -780 Descending FlightAware ADS-B
06:06PM 37.4391 -122.2710 150° Southeast 205 236 6,700 -780 Level FlightAware ADS-B
06:06PM 37.4356 -122.2680 146° Southeast 204 235 6,600 -1,380 Descending FlightAware ADS-B
06:06PM 37.4329 -122.2650 139° Southeast 203 234 6,500 -900 Descending FlightAware ADS-B
06:06PM 37.4308 -122.2620 131° Southeast 201 231 6,500 -720 Level FlightAware ADS-B
06:06PM 37.4252 -122.2470 115° Southeast 197 227 6,300 -660 Descending FlightAware ADS-B
06:07PM 37.4197 -122.2320 115° Southeast 197 227 6,200 -600 Descending FlightAware ADS-B
06:07PM 37.4141 -122.2150 113° Southeast 197 227 6,000 -600 Descending FlightAware ADS-B
06:07PM 37.4083 -122.1980 113° Southeast 198 228 5,900  Descending FlightAware ADS-B
06:08PM 37.4027 -122.1820 114° Southeast 196 226 6,000 180 Climbing FlightAware ADS-B
06:08PM 37.3987 -122.1710 115° Southeast 197 227 6,000  Level FlightAware ADS-B
06:08PM 37.3930 -122.1550 114° Southeast 197 227 6,000  Level FlightAware ADS-B
06:08PM 37.3914 -122.1490 109° East 198 228 6,000  Level FlightAware ADS-B
06:08PM 37.3905 -122.1460 111° Southeast 197 227 6,000  Level FlightAware ADS-B
06:08PM 37.3898 -122.1430 106° East 198 228 6,000  Level FlightAware ADS-B
06:08PM 37.3895 -122.1380 94° East 199 229 6,000  Level FlightAware ADS-B
06:08PM 37.3900 -122.1320 84° East 201 231 6,000  Level FlightAware ADS-B
06:08PM 37.3909 -122.1280 74° East 201 231 6,000  Level FlightAware ADS-B
06:08PM 37.3920 -122.1250 65° Northeast 202 232 6,000  Level FlightAware ADS-B
06:08PM 37.3941 -122.1210 57° Northeast 201 231 6,000  Level FlightAware ADS-B
06:09PM 37.3957 -122.1180 56° Northeast 201 231 6,000  Level FlightAware ADS-B
06:09PM 37.4042 -122.1040 53° Northeast 202 232 6,000  Level FlightAware ADS-B
06:09PM 37.4128 -122.0900 52° Northeast 202 232 6,000  Level FlightAware ADS-B
06:09PM 37.4157 -122.0870 39° Northeast 203 234 6,000 -600 Level FlightAware ADS-B
06:09PM 37.4207 -122.0830 32° Northeast 204 235 5,900 -600 Descending FlightAware ADS-B
06:09PM 37.4245 -122.0820 12° North 207 238 5,900 -600 Level FlightAware ADS-B
06:09PM 37.4300 -122.0810 North 208 239 5,800 -720 Descending FlightAware ADS-B
06:09PM 37.4335 -122.0820 347° North 208 239 5,800 -900 Level FlightAware ADS-B
06:09PM 37.4370 -122.0820 360° North 207 238 5,700 -1,200 Descending FlightAware ADS-B
06:10PM 37.4517 -122.0870 345° North 205 236 5,400 -1,140 Descending FlightAware ADS-B
06:10PM 37.4615 -122.0910 342° North 203 234 5,200 -1,200 Descending FlightAware ADS-B
06:10PM 37.4692 -122.0950 338° Northwest 201 231 5,000 -1,200 Descending FlightAware ADS-B
06:10PM 37.4746 -122.0980 336° Northwest 198 228 4,900 -1,080 Descending FlightAware ADS-B
06:10PM 37.4831 -122.1040 331° Northwest 193 222 4,700 -1,200 Descending FlightAware ADS-B
06:10PM 37.4899 -122.1090 330° Northwest 191 220 4,500 -1,380 Descending FlightAware ADS-B
06:11PM 37.4968 -122.1150 325° Northwest 187 215 4,300 -1,200 Descending FlightAware ADS-B
06:11PM 37.5005 -122.1190 319° Northwest 185 213 4,200 -840 Descending FlightAware ADS-B
06:11PM 37.5110 -122.1300 320° Northwest 192 221 4,000 -1,080 Descending FlightAware ADS-B
06:11PM 37.5157 -122.1360 315° West 192 221 3,800 -1,140 Descending FlightAware ADS-B
06:11PM 37.5178 -122.1390 311° West 191 220 3,800 -780 Level FlightAware ADS-B
06:11PM 37.5201 -122.1420 314° West 190 219 3,700 -1,500 Descending FlightAware ADS-B
06:11PM 37.5221 -122.1460 302° West 190 219 3,600 -1,440 Descending FlightAware ADS-B
06:12PM 37.5277 -122.1590 299° West 191 220 3,300 -1,080 Descending FlightAware ADS-B
06:12PM 37.5344 -122.1750 298° West 194 223 3,100 -840 Descending FlightAware ADS-B
06:12PM 37.5403 -122.1890 298° West 192 221 2,900 -1,080 Descending FlightAware ADS-B
06:12PM 37.5466 -122.2030 300° West 189 217 2,600 -1,200 Descending FlightAware ADS-B
06:12PM 37.5511 -122.2140 297° West 189 217 2,400 -900 Descending FlightAware ADS-B
06:13PM 37.5553 -122.2240 298° West 190 219 2,300 -720 Descending FlightAware ADS-B
06:13PM 37.5623 -122.2400 299° West 188 216 2,100 -960 Descending FlightAware ADS-B
06:13PM 37.5685 -122.2550 298° West 184 212 1,800 -1,200 Descending FlightAware ADS-B
06:13PM 37.5706 -122.2600 298° West 181 208 1,700 -900 Descending FlightAware ADS-B
06:14PM 37.5763 -122.2740 297° West 165 190 1,500 -900 Descending FlightAware ADS-B
06:14PM 37.5806 -122.2840 298° West 151 174 1,300 -1,020 Descending FlightAware ADS-B
06:14PM 37.5881 -122.3020 298° West 146 168 900 -780 Descending FlightAware ADS-B
06:14PM 37.5927 -122.3130 298° West 143 165 800 -540 Descending FlightAware ADS-B
06:15PM 37.5984 -122.3270 297° West 139 160 600 -600 Descending FlightAware ADS-B
06:15PM 37.6019 -122.3340 302° West 138 159 500 -600 Descending FlightAware ADS-B
06:15PM 37.6047 -122.3410 297° West 137 158 400 -780 Descending FlightAware ADS-B
06:15PM 37.6066 -122.3460 296° West 134 154 300 -1,020 Descending FlightAware ADS-B
06:15PM 37.6100 -122.3540 298° West 130 150 100 -1,140 Descending FlightAware ADS-B
06:15PM 37.6115 -122.3570 302° West 128 147 -1,020 Descending FlightAware ADS-B